Latest Weather Observations for Minlaton Airport

IDS60801

Issued at 2:31 pm CST Tuesday 7 July 2015 (issued every 30 minutes, with the page automatically refreshed every 10 minutes)

About weather observations | Map of weather stations | Latest weather observations for SA | Other Formats
Station Details ID: 022031 Name: MINLATON AERO Lat: -34.75 Lon: 137.53 Height: 32.0 m
Data from the previous 72 hours. | See also: Recent months at Minlaton Airport
Date/Time
CST
Temp
°C
App
Temp
°C
Dew
Point
Rel
Hum
%
Delta-T
°C
Wind Press
QNH
hPa
Press
MSL
hPa
Rain
since 9 am
mm
Dir
 
Spd
km/h
Gust
km/h
Spd
kts
Gust
kts
07/02:30pm 14.0 10.7 11.0 82 1.6 WSW 19 26 10 14 1021.7 1021.8 0.0
07/02:00pm 14.7 11.7 10.5 76 2.2 W 17 20 9 11 1021.7 1021.8 0.0
07/01:30pm 14.1 11.0 10.3 78 2.0 W 17 20 9 11 1021.7 1021.8 0.0
07/01:00pm 14.3 11.4 11.1 81 1.7 WSW 17 24 9 13 1022.0 1022.1 0.0
07/12:30pm 14.4 11.7 10.4 77 2.1 WSW 15 20 8 11 1022.3 1022.4 0.0
07/12:00pm 14.3 11.7 9.3 72 2.5 SW 13 17 7 9 1022.5 1022.6 0.0
07/11:30am 14.3 11.2 10.3 77 2.1 SW 17 20 9 11 1022.6 1022.7 0.0
07/11:00am 13.7 10.7 10.7 82 1.6 SW 17 24 9 13 1022.8 1022.9 0.0
07/10:30am 13.4 10.3 10.4 82 1.6 SW 17 22 9 12 1022.9 1023.0 0.0
07/10:00am 13.0 10.7 10.5 85 1.3 SSW 13 19 7 10 1022.7 1022.8 0.0
07/09:30am 12.3 10.8 10.4 88 1.0 SW 9 9 5 5 1022.7 1022.8 0.0
07/09:00am 11.3 10.9 9.9 91 0.7 SSW 2 7 1 4 1022.5 1022.6 0.6
07/08:30am 9.4 8.3 8.6 95 0.4 W 4 6 2 3 1022.3 1022.4 0.6
07/08:00am 8.2 5.9 7.6 96 0.3 W 9 9 5 5 1022.0 1022.1 0.6
07/07:30am 7.5 5.6 6.9 96 0.3 WSW 6 7 3 4 1021.8 1021.9 0.6
07/07:00am 6.4 5.4 5.7 95 0.3 CALM 0 0 0 0 1021.5 1021.6 0.6
07/06:30am 8.0 6.1 6.8 92 0.6 SW 6 6 3 3 1021.1 1021.2 0.6
07/06:00am 8.9 6.3 7.8 93 0.5 WSW 11 13 6 7 1020.7 1020.8 0.6
07/05:30am 9.1 6.5 7.9 92 0.6 WSW 11 13 6 7 1020.6 1020.7 0.6
07/05:00am 9.3 6.8 8.1 92 0.6 WSW 11 13 6 7 1020.3 1020.4 0.6
07/04:30am 10.2 8.3 9.0 92 0.6 WSW 9 11 5 6 1020.3 1020.4 0.6
07/04:00am 10.8 8.6 9.2 90 0.8 SW 11 15 6 8 1020.2 1020.3 0.6
07/03:30am 11.4 8.2 10.0 91 0.7 WSW 17 26 9 14 1020.4 1020.5 0.6
07/03:00am 11.3 8.1 9.9 91 0.7 WSW 17 24 9 13 1020.3 1020.4 0.6
07/02:30am 11.3 8.2 10.2 93 0.6 WSW 17 20 9 11 1020.3 1020.4 0.6
07/02:00am 11.1 7.9 10.0 93 0.6 WSW 17 22 9 12 1020.2 1020.3 0.6
07/01:30am 11.5 7.7 9.9 90 0.8 WSW 20 24 11 13 1020.1 1020.2 0.4
07/01:00am 11.5 7.3 9.8 89 0.9 WSW 22 30 12 16 1020.1 1020.2 0.4
07/12:30am 11.0 8.5 9.8 92 0.6 WSW 13 17 7 9 1020.2 1020.3 0.4
07/12:00am 10.4 8.6 9.3 93 0.5 WSW 9 11 5 6 1020.2 1020.3 0.4
 
Date/Time
CST
Temp
°C
App
Temp
°C
Dew
Point
Rel
Hum
%
Delta-T
°C
Wind Press
QNH
hPa
Press
MSL
hPa
Rain
since 9 am
mm
Dir
 
Spd
km/h
Gust
km/h
Spd
kts
Gust
kts
06/11:30pm 10.8 8.2 9.4 91 0.7 WSW 13 17 7 9 1020.2 1020.3 0.4
06/11:00pm 11.5 7.9 9.8 89 0.9 SW 19 28 10 15 1020.2 1020.3 0.4
06/10:30pm 10.9 7.6 9.5 91 0.7 WSW 17 20 9 11 1020.2 1020.3 0.4
06/10:00pm 10.4 7.4 9.2 92 0.6 WSW 15 19 8 10 1020.0 1020.1 0.4
06/09:30pm 11.1 7.1 9.2 88 0.9 WSW 20 24 11 13 1019.8 1019.9 0.4
06/09:00pm 11.7 8.0 9.4 86 1.2 WSW 19 28 10 15 1019.5 1019.6 0.4
06/08:30pm 10.1 6.9 8.5 90 0.8 WSW 15 17 8 9 1019.2 1019.3 0.4
06/08:00pm 10.4 6.4 8.3 87 1.0 WSW 19 20 10 11 1018.9 1018.9 0.4
06/07:30pm 11.1 7.0 8.8 86 1.1 WSW 20 22 11 12 1018.7 1018.7 0.4
06/07:00pm 11.3 7.7 9.9 91 0.7 W 19 24 10 13 1018.5 1018.5 0.4
06/06:30pm 11.2 7.5 9.3 88 0.9 W 19 22 10 12 1018.2 1018.2 0.4
06/06:00pm 11.8 7.3 10.0 89 0.9 W 24 30 13 16 1018.1 1018.1 0.4
06/05:30pm 12.2 7.6 9.6 84 1.3 WSW 24 32 13 17 1017.8 1017.8 0.4
06/05:00pm 12.9 8.4 10.1 83 1.4 W 24 30 13 16 1017.5 1017.5 0.4
06/04:30pm 13.6 8.4 10.2 80 1.8 WSW 28 35 15 19 1017.0 1017.0 0.4
06/04:00pm 14.0 8.8 10.4 79 1.9 W 28 33 15 18 1016.9 1016.9 0.4
06/03:30pm 13.6 8.4 10.2 80 1.8 W 28 33 15 18 1017.0 1017.0 0.4
06/03:00pm 14.8 9.4 10.8 77 2.1 W 30 37 16 20 1016.8 1016.8 0.4
06/02:30pm 14.9 9.9 11.1 78 2.0 W 28 35 15 19 1016.6 1016.6 0.4
06/02:00pm 14.1 8.9 11.6 85 1.3 WNW 30 39 16 21 1016.6 1016.6 0.4
06/01:30pm 13.0 7.9 10.7 86 1.2 WNW 28 35 15 19 1016.9 1016.9 0.4
06/01:00pm 13.1 7.4 11.2 88 1.0 WNW 32 43 17 23 1016.9 1016.9 0.4
06/12:30pm 14.8 9.6 11.6 81 1.7 WNW 30 37 16 20 1017.0 1017.0 0.4
06/12:00pm 13.9 9.0 11.4 85 1.3 WNW 28 33 15 18 1017.2 1017.2 0.4
06/11:30am 14.4 9.2 11.6 83 1.5 WNW 30 37 16 20 1017.4 1017.4 0.4
06/11:00am 12.4 7.8 9.6 83 1.4 WNW 24 30 13 16 1017.5 1017.5 0.4
06/10:30am 13.2 9.3 10.7 85 1.3 WNW 22 30 12 16 1017.5 1017.5 0.4
06/10:00am 12.0 7.9 10.2 89 0.9 WNW 22 30 12 16 1017.3 1017.3 0.4
06/09:30am 13.2 9.5 10.2 82 1.6 W 20 24 11 13 1017.1 1017.1 0.0
06/09:00am 11.9 8.2 9.6 86 1.2 W 19 20 10 11 1016.7 1016.7 2.4
06/08:30am 13.3 9.6 10.3 82 1.6 WNW 20 28 11 15 1016.4 1016.4 2.4
06/08:00am 11.7 8.4 9.6 87 1.1 WNW 17 20 9 11 1016.0 1016.0 2.4
06/07:30am 11.0 7.2 8.9 87 1.0 W 19 20 10 11 1015.6 1015.6 2.4
06/07:00am 11.1 7.3 9.2 88 0.9 W 19 22 10 12 1015.5 1015.5 2.4
06/06:30am 11.1 7.6 8.8 86 1.1 W 17 20 9 11 1015.4 1015.4 2.4
06/06:00am 11.2 7.7 8.8 85 1.2 W 17 20 9 11 1015.3 1015.3 2.4
06/05:30am 12.9 8.7 11.1 89 0.9 W 24 30 13 16 1015.1 1015.1 2.4
06/05:00am 12.7 8.9 11.3 91 0.7 W 22 28 12 15 1014.9 1014.9 2.4
06/04:30am 12.9 8.3 11.0 88 1.0 WNW 26 35 14 19 1015.0 1015.0 2.4
06/04:00am 13.1 8.8 10.8 86 1.2 WNW 24 33 13 18 1014.9 1014.9 2.4
06/03:30am 12.9 8.0 9.9 82 1.5 WNW 26 32 14 17 1014.8 1014.8 2.4
06/03:00am 12.6 8.0 9.8 83 1.4 NW 24 32 13 17 1014.9 1014.9 2.4
06/02:30am 11.6 8.3 9.7 88 1.0 N 17 20 9 11 1015.0 1015.0 2.4
06/02:00am 11.9 8.2 10.1 89 0.9 NNW 20 28 11 15 1014.9 1014.9 2.4
06/01:30am 11.6 8.3 9.7 88 1.0 NNW 17 19 9 10 1015.4 1015.4 0.6
06/01:00am 11.6 7.2 9.0 84 1.3 NNW 22 30 12 16 1015.3 1015.3 0.4
06/12:30am 11.0 7.0 8.4 84 1.3 N 19 24 10 13 1015.3 1015.3 0.4
06/12:00am 10.7 6.4 7.9 83 1.4 N 20 22 11 12 1015.4 1015.4 0.4
 
Date/Time
CST
Temp
°C
App
Temp
°C
Dew
Point
Rel
Hum
%
Delta-T
°C
Wind Press
QNH
hPa
Press
MSL
hPa
Rain
since 9 am
mm
Dir
 
Spd
km/h
Gust
km/h
Spd
kts
Gust
kts
05/11:30pm 12.0 8.8 8.3 78 1.8 N 15 20 8 11 1015.8 1015.8 0.0
05/11:00pm 12.3 8.7 8.2 76 2.0 N 17 20 9 11 1015.8 1015.8 0.0
05/10:30pm 12.7 8.4 7.8 72 2.4 N 20 26 11 14 1016.0 1016.0 0.0
05/10:00pm 12.4 8.0 7.5 72 2.4 N 20 22 11 12 1016.0 1016.0 0.0
05/09:30pm 12.0 7.7 7.1 72 2.4 N 19 20 10 11 1016.0 1016.0 0.0
05/09:00pm 12.1 7.1 6.6 69 2.6 N 22 28 12 15 1016.1 1016.1 0.0
05/08:30pm 12.0 7.0 6.3 68 2.7 N 22 26 12 14 1016.0 1016.0 0.0
05/08:00pm 11.5 6.8 6.2 70 2.5 N 20 22 11 12 1016.1 1016.1 0.0
05/07:30pm 12.7 8.0 6.1 64 3.1 NNE 20 26 11 14 1016.2 1016.2 0.0
05/07:00pm 12.9 8.3 6.5 65 3.1 N 20 24 11 13 1016.4 1016.4 0.0
05/06:30pm 13.0 9.0 6.6 65 3.1 NNE 17 20 9 11 1016.4 1016.4 0.0
05/06:00pm 13.5 9.5 6.6 63 3.3 N 17 20 9 11 1016.3 1016.3 0.0
05/05:30pm 13.9 9.4 6.0 59 3.8 N 19 20 10 11 1016.1 1016.1 0.0
05/05:00pm 14.1 9.6 6.0 58 3.9 N 19 24 10 13 1016.0 1016.0 0.0
05/04:30pm 14.4 9.7 6.0 57 4.0 N 20 24 11 13 1016.2 1016.2 0.0
05/04:00pm 15.1 9.6 5.9 54 4.4 N 24 32 13 17 1016.5 1016.5 0.0
05/03:30pm 15.1 8.6 6.4 56 4.2 N 30 33 16 18 1016.5 1016.5 0.0
05/03:00pm 15.6 9.1 6.3 54 4.5 NNW 30 37 16 20 1016.7 1016.7 0.0
05/02:30pm 16.0 9.4 6.2 52 4.8 NNW 30 35 16 19 1016.9 1016.9 0.0
05/02:00pm 15.8 9.0 6.8 55 4.4 NNW 32 35 17 19 1017.1 1017.1 0.0
05/01:30pm 16.0 9.8 7.7 58 4.2 NNW 30 35 16 19 1017.4 1017.4 0.0
05/01:00pm 15.8 9.5 7.3 57 4.2 NNW 30 35 16 19 1017.9 1017.9 0.0
05/12:30pm 15.6 9.5 8.1 61 3.8 NNW 30 37 16 20 1018.3 1018.3 0.0
05/12:00pm 15.2 9.3 8.9 66 3.2 NNW 30 35 16 19 1018.9 1018.9 0.0
05/11:30am 15.0 10.0 9.4 69 2.9 NNW 26 33 14 18 1019.3 1019.4 0.0
05/11:00am 14.4 8.9 9.2 71 2.7 NNW 28 35 15 19 1019.5 1019.6 0.0
05/10:30am 14.1 9.5 9.5 74 2.4 NNW 24 32 13 17 1019.9 1020.0 0.0
05/10:00am 13.2 9.3 9.5 78 1.9 N 20 24 11 13 1019.9 1020.0 0.0
05/09:30am 11.4 7.6 9.1 86 1.1 N 19 22 10 12 1020.0 1020.1 0.0
05/09:00am 9.8 5.7 7.7 87 1.0 N 19 20 10 11 1020.0 1020.1 0.0
05/08:30am 8.0 3.6 6.5 90 0.7 N 19 24 10 13 1019.9 1020.0 0.0
05/08:00am 6.6 1.9 5.2 91 0.6 N 19 20 10 11 1019.8 1019.9 0.0
05/07:30am 6.1 1.3 4.9 92 0.5 N 19 20 10 11 1019.8 1019.9 0.0
05/07:00am 7.1 2.5 5.6 90 0.7 N 19 20 10 11 1019.5 1019.6 0.0
05/06:30am 7.7 3.0 6.0 89 0.8 NNE 20 26 11 14 1019.4 1019.5 0.0
05/06:00am 7.7 3.1 6.3 91 0.6 NNE 20 24 11 13 1019.3 1019.4 0.0
05/05:30am 7.0 2.3 5.9 93 0.5 N 20 22 11 12 1019.4 1019.5 0.0
05/05:00am 7.1 2.6 6.0 93 0.5 N 19 20 10 11 1019.4 1019.5 0.0
05/04:30am 6.5 2.3 5.6 94 0.4 N 17 19 9 10 1019.4 1019.5 0.0
05/04:00am 6.4 2.1 5.2 92 0.5 N 17 17 9 9 1019.5 1019.6 0.0
05/03:30am 7.2 3.0 5.7 90 0.7 N 17 17 9 9 1019.6 1019.7 0.0
05/03:00am 8.2 4.1 6.3 88 0.9 N 17 20 9 11 1019.9 1020.0 0.0
05/02:30am 8.4 3.7 5.9 84 1.1 NNE 20 22 11 12 1019.9 1020.0 0.0
05/02:00am 8.5 3.7 5.8 83 1.2 NNE 20 22 11 12 1019.9 1020.0 0.0
05/01:30am 8.7 4.0 6.2 84 1.1 NNE 20 24 11 13 1020.0 1020.1 0.0
05/01:00am 8.4 3.7 5.9 84 1.1 NNE 20 24 11 13 1020.2 1020.3 0.0
05/12:30am 8.3 3.6 5.9 85 1.1 NNE 20 24 11 13 1020.5 1020.6 0.0
05/12:00am 8.4 3.7 5.9 84 1.1 NNE 20 24 11 13 1020.8 1020.9 0.0
 
Date/Time
CST
Temp
°C
App
Temp
°C
Dew
Point
Rel
Hum
%
Delta-T
°C
Wind Press
QNH
hPa
Press
MSL
hPa
Rain
since 9 am
mm
Dir
 
Spd
km/h
Gust
km/h
Spd
kts
Gust
kts
04/11:30pm 8.2 3.4 5.7 84 1.1 NNE 20 24 11 13 1021.1 1021.2 0.0
04/11:00pm 7.6 2.9 5.2 85 1.1 NNE 19 20 10 11 1021.3 1021.4 0.0
04/10:30pm 7.5 2.7 4.8 83 1.2 N 19 20 10 11 1021.3 1021.4 0.0
04/10:00pm 7.2 2.4 4.5 83 1.2 N 19 20 10 11 1021.4 1021.5 0.0
04/09:30pm 7.7 3.3 4.8 82 1.3 NNE 17 19 9 10 1021.3 1021.4 0.0
04/09:00pm 7.9 3.2 5.2 83 1.2 NNE 19 20 10 11 1021.3 1021.4 0.0
04/08:30pm 8.0 3.4 5.6 85 1.1 NNE 19 20 10 11 1021.5 1021.6 0.0
04/08:00pm 8.2 3.6 5.8 85 1.1 NNE 19 20 10 11 1021.6 1021.7 0.0
04/07:30pm 8.2 3.7 6.3 88 0.9 NNE 19 19 10 10 1021.6 1021.7 0.0
04/07:00pm 7.8 3.7 6.1 89 0.8 NNE 17 17 9 9 1021.7 1021.8 0.0
04/06:30pm 8.0 4.3 6.1 88 0.9 NNE 15 15 8 8 1021.8 1021.9 0.0
04/06:00pm 9.0 5.5 7.1 88 0.9 N 15 15 8 8 1021.4 1021.5 0.0
04/05:30pm 9.9 6.5 7.8 87 1.0 N 15 15 8 8 1021.5 1021.6 0.0
04/05:00pm 11.8 9.1 9.0 83 1.4 N 13 15 7 8 1021.5 1021.6 0.0
04/04:30pm 13.8 10.9 9.6 76 2.1 NNW 15 20 8 11 1021.4 1021.5 0.0
04/04:00pm 14.6 11.4 9.8 73 2.5 NW 17 20 9 11 1021.4 1021.5 0.0
04/03:30pm 15.0 11.7 9.6 70 2.8 NW 17 20 9 11 1021.5 1021.6 0.0
04/03:00pm 15.5 12.2 9.6 68 3.0 NW 17 24 9 13 1021.6 1021.7 0.0

Other Formats:

Comma delimited format used in spreadsheet applications
http://www.bom.gov.au/fwo/IDS60801/IDS60801.95659.axf

JavaScript Object Notation format (JSON) in row-major order
http://www.bom.gov.au/fwo/IDS60801/IDS60801.95659.json